sensor_id;sensor_type;location;lat;lon;timestamp;temperature;humidity
54264;DHT22;40178;53.042;6.406;2023-02-24T00:01:16;3.10;99.90
54264;DHT22;40178;53.042;6.406;2023-02-24T00:04:11;3.10;99.90
54264;DHT22;40178;53.042;6.406;2023-02-24T00:06:39;3.00;99.90
54264;DHT22;40178;53.042;6.406;2023-02-24T00:09:07;3.00;99.90
54264;DHT22;40178;53.042;6.406;2023-02-24T00:11:39;2.90;99.90
54264;DHT22;40178;53.042;6.406;2023-02-24T00:14:10;2.80;99.90
54264;DHT22;40178;53.042;6.406;2023-02-24T00:16:37;2.70;99.90
54264;DHT22;40178;53.042;6.406;2023-02-24T00:19:03;2.50;99.90
54264;DHT22;40178;53.042;6.406;2023-02-24T00:21:32;2.40;99.90
54264;DHT22;40178;53.042;6.406;2023-02-24T00:23:58;2.40;99.90
54264;DHT22;40178;53.042;6.406;2023-02-24T00:26:24;2.30;99.90
54264;DHT22;40178;53.042;6.406;2023-02-24T00:28:50;2.20;99.90
54264;DHT22;40178;53.042;6.406;2023-02-24T00:31:17;2.20;99.90
54264;DHT22;40178;53.042;6.406;2023-02-24T00:33:45;2.20;99.90
54264;DHT22;40178;53.042;6.406;2023-02-24T00:36:18;2.20;99.90
54264;DHT22;40178;53.042;6.406;2023-02-24T00:38:58;2.20;99.90
54264;DHT22;40178;53.042;6.406;2023-02-24T00:41:26;2.10;99.90
54264;DHT22;40178;53.042;6.406;2023-02-24T00:44:01;2.00;99.90
54264;DHT22;40178;53.042;6.406;2023-02-24T00:46:33;2.00;99.90
54264;DHT22;40178;53.042;6.406;2023-02-24T00:49:01;2.00;99.90
54264;DHT22;40178;53.042;6.406;2023-02-24T00:51:33;1.90;99.90
54264;DHT22;40178;53.042;6.406;2023-02-24T00:54:00;1.90;99.90
54264;DHT22;40178;53.042;6.406;2023-02-24T00:56:27;1.80;99.90
54264;DHT22;40178;53.042;6.406;2023-02-24T00:58:53;1.90;99.90
54264;DHT22;40178;53.042;6.406;2023-02-24T01:01:21;1.90;99.90
54264;DHT22;40178;53.042;6.406;2023-02-24T01:03:48;1.90;99.90
54264;DHT22;40178;53.042;6.406;2023-02-24T01:06:15;1.90;99.90
54264;DHT22;40178;53.042;6.406;2023-02-24T01:08:42;2.00;99.90
54264;DHT22;40178;53.042;6.406;2023-02-24T01:11:12;2.00;99.90
54264;DHT22;40178;53.042;6.406;2023-02-24T01:13:57;2.00;99.90
54264;DHT22;40178;53.042;6.406;2023-02-24T01:16:23;2.00;99.90
54264;DHT22;40178;53.042;6.406;2023-02-24T01:18:48;2.00;99.90
54264;DHT22;40178;53.042;6.406;2023-02-24T01:21:18;2.10;99.90
54264;DHT22;40178;53.042;6.406;2023-02-24T01:23:49;2.20;99.90
54264;DHT22;40178;53.042;6.406;2023-02-24T01:26:15;2.30;99.90
54264;DHT22;40178;53.042;6.406;2023-02-24T01:28:42;2.30;99.90
54264;DHT22;40178;53.042;6.406;2023-02-24T01:31:12;2.40;99.90
54264;DHT22;40178;53.042;6.406;2023-02-24T01:33:40;2.40;99.90
54264;DHT22;40178;53.042;6.406;2023-02-24T01:36:21;2.40;99.90
54264;DHT22;40178;53.042;6.406;2023-02-24T01:38:47;2.50;99.90
54264;DHT22;40178;53.042;6.406;2023-02-24T01:41:18;2.40;99.90
54264;DHT22;40178;53.042;6.406;2023-02-24T01:46:45;2.40;99.90
54264;DHT22;40178;53.042;6.406;2023-02-24T01:49:18;2.40;99.90
54264;DHT22;40178;53.042;6.406;2023-02-24T01:51:58;2.30;99.90
54264;DHT22;40178;53.042;6.406;2023-02-24T01:54:31;2.30;99.90
54264;DHT22;40178;53.042;6.406;2023-02-24T01:56:58;2.20;99.90
54264;DHT22;40178;53.042;6.406;2023-02-24T01:59:27;2.20;99.90
54264;DHT22;40178;53.042;6.406;2023-02-24T02:01:57;2.20;99.90
54264;DHT22;40178;53.042;6.406;2023-02-24T02:04:41;2.10;99.90
54264;DHT22;40178;53.042;6.406;2023-02-24T02:07:14;2.10;99.90
54264;DHT22;40178;53.042;6.406;2023-02-24T02:09:41;2.10;99.90
54264;DHT22;40178;53.042;6.406;2023-02-24T02:12:09;2.10;99.90
54264;DHT22;40178;53.042;6.406;2023-02-24T02:14:36;2.00;99.90
54264;DHT22;40178;53.042;6.406;2023-02-24T02:31:14;2.10;99.90
54264;DHT22;40178;53.042;6.406;2023-02-24T02:34:02;2.20;99.90
54264;DHT22;40178;53.042;6.406;2023-02-24T02:42:44;2.30;99.90
54264;DHT22;40178;53.042;6.406;2023-02-24T02:45:20;2.40;99.90
54264;DHT22;40178;53.042;6.406;2023-02-24T02:47:49;2.50;99.90
54264;DHT22;40178;53.042;6.406;2023-02-24T02:52:57;2.60;99.90
54264;DHT22;40178;53.042;6.406;2023-02-24T02:55:45;2.60;99.90
54264;DHT22;40178;53.042;6.406;2023-02-24T02:58:18;2.70;99.90
54264;DHT22;40178;53.042;6.406;2023-02-24T03:00:57;2.70;99.90
54264;DHT22;40178;53.042;6.406;2023-02-24T03:03:49;2.70;99.90
54264;DHT22;40178;53.042;6.406;2023-02-24T03:06:19;2.80;99.90
54264;DHT22;40178;53.042;6.406;2023-02-24T03:11:20;2.70;99.90
54264;DHT22;40178;53.042;6.406;2023-02-24T03:13:47;2.70;99.90
54264;DHT22;40178;53.042;6.406;2023-02-24T03:16:16;2.70;99.90
54264;DHT22;40178;53.042;6.406;2023-02-24T03:18:48;2.70;99.90
54264;DHT22;40178;53.042;6.406;2023-02-24T03:21:26;2.70;99.90
54264;DHT22;40178;53.042;6.406;2023-02-24T03:23:54;2.70;99.90
54264;DHT22;40178;53.042;6.406;2023-02-24T03:26:21;2.70;99.90
54264;DHT22;40178;53.042;6.406;2023-02-24T03:31:27;2.70;99.90
54264;DHT22;40178;53.042;6.406;2023-02-24T03:34:53;2.70;99.90
54264;DHT22;40178;53.042;6.406;2023-02-24T03:36:54;2.70;99.90
54264;DHT22;40178;53.042;6.406;2023-02-24T03:39:20;2.70;99.90
54264;DHT22;40178;53.042;6.406;2023-02-24T03:41:57;2.80;99.90
54264;DHT22;40178;53.042;6.406;2023-02-24T03:44:24;2.80;99.90
54264;DHT22;40178;53.042;6.406;2023-02-24T03:46:51;2.70;99.90
54264;DHT22;40178;53.042;6.406;2023-02-24T03:49:17;2.80;99.90
54264;DHT22;40178;53.042;6.406;2023-02-24T04:02:23;2.80;99.90
54264;DHT22;40178;53.042;6.406;2023-02-24T04:04:59;2.70;99.90
54264;DHT22;40178;53.042;6.406;2023-02-24T04:10:10;2.80;99.90
54264;DHT22;40178;53.042;6.406;2023-02-24T04:15:37;2.90;99.90
54264;DHT22;40178;53.042;6.406;2023-02-24T04:18:31;2.80;99.90
54264;DHT22;40178;53.042;6.406;2023-02-24T04:20:58;2.80;99.90
54264;DHT22;40178;53.042;6.406;2023-02-24T04:23:29;2.80;99.90
54264;DHT22;40178;53.042;6.406;2023-02-24T04:25:56;2.80;99.90
54264;DHT22;40178;53.042;6.406;2023-02-24T04:28:22;2.80;99.90
54264;DHT22;40178;53.042;6.406;2023-02-24T04:30:50;2.90;99.90
54264;DHT22;40178;53.042;6.406;2023-02-24T04:33:17;2.90;99.90
54264;DHT22;40178;53.042;6.406;2023-02-24T04:35:44;2.90;99.90
54264;DHT22;40178;53.042;6.406;2023-02-24T04:38:11;3.00;99.90
54264;DHT22;40178;53.042;6.406;2023-02-24T04:40:37;3.00;99.90
54264;DHT22;40178;53.042;6.406;2023-02-24T04:43:05;3.00;99.90
54264;DHT22;40178;53.042;6.406;2023-02-24T04:45:32;3.00;99.90
54264;DHT22;40178;53.042;6.406;2023-02-24T04:47:59;3.10;99.90
54264;DHT22;40178;53.042;6.406;2023-02-24T04:50:36;3.10;99.90
54264;DHT22;40178;53.042;6.406;2023-02-24T04:53:05;3.10;99.90
54264;DHT22;40178;53.042;6.406;2023-02-24T04:55:35;3.10;99.90
54264;DHT22;40178;53.042;6.406;2023-02-24T04:58:05;3.10;99.90
54264;DHT22;40178;53.042;6.406;2023-02-24T05:00:30;3.20;99.90
54264;DHT22;40178;53.042;6.406;2023-02-24T05:03:02;3.20;99.90
54264;DHT22;40178;53.042;6.406;2023-02-24T05:05:28;3.20;99.90
54264;DHT22;40178;53.042;6.406;2023-02-24T05:07:57;3.20;99.90
54264;DHT22;40178;53.042;6.406;2023-02-24T05:10:41;3.20;99.90
54264;DHT22;40178;53.042;6.406;2023-02-24T05:13:10;3.30;99.90
54264;DHT22;40178;53.042;6.406;2023-02-24T05:15:39;3.30;99.90
54264;DHT22;40178;53.042;6.406;2023-02-24T05:18:07;3.30;99.90
54264;DHT22;40178;53.042;6.406;2023-02-24T05:20:42;3.30;99.90
54264;DHT22;40178;53.042;6.406;2023-02-24T05:23:28;3.30;99.90
54264;DHT22;40178;53.042;6.406;2023-02-24T05:25:57;3.30;99.90
54264;DHT22;40178;53.042;6.406;2023-02-24T05:28:23;3.40;99.90
54264;DHT22;40178;53.042;6.406;2023-02-24T05:30:50;3.40;99.90
54264;DHT22;40178;53.042;6.406;2023-02-24T05:33:17;3.40;99.90
54264;DHT22;40178;53.042;6.406;2023-02-24T05:35:49;3.40;99.90
54264;DHT22;40178;53.042;6.406;2023-02-24T05:38:18;3.40;99.90
54264;DHT22;40178;53.042;6.406;2023-02-24T05:40:47;3.40;99.90
54264;DHT22;40178;53.042;6.406;2023-02-24T05:43:13;3.40;99.90
54264;DHT22;40178;53.042;6.406;2023-02-24T05:45:46;3.50;99.90
54264;DHT22;40178;53.042;6.406;2023-02-24T05:48:12;3.50;99.90
54264;DHT22;40178;53.042;6.406;2023-02-24T05:50:41;3.60;99.90
54264;DHT22;40178;53.042;6.406;2023-02-24T05:53:12;3.50;99.90
54264;DHT22;40178;53.042;6.406;2023-02-24T05:55:37;3.60;99.90
54264;DHT22;40178;53.042;6.406;2023-02-24T05:58:03;3.60;99.90
54264;DHT22;40178;53.042;6.406;2023-02-24T06:00:32;3.60;99.90
54264;DHT22;40178;53.042;6.406;2023-02-24T06:03:04;3.60;99.90
54264;DHT22;40178;53.042;6.406;2023-02-24T06:05:33;3.60;99.90
54264;DHT22;40178;53.042;6.406;2023-02-24T06:08:00;3.50;99.90
54264;DHT22;40178;53.042;6.406;2023-02-24T06:10:33;3.60;99.90
54264;DHT22;40178;53.042;6.406;2023-02-24T06:13:00;3.60;99.90
54264;DHT22;40178;53.042;6.406;2023-02-24T06:15:27;3.60;99.90
54264;DHT22;40178;53.042;6.406;2023-02-24T06:17:52;3.60;99.90
54264;DHT22;40178;53.042;6.406;2023-02-24T06:20:22;3.60;99.90
54264;DHT22;40178;53.042;6.406;2023-02-24T06:22:48;3.60;99.90
54264;DHT22;40178;53.042;6.406;2023-02-24T06:25:19;3.60;99.90
54264;DHT22;40178;53.042;6.406;2023-02-24T06:27:44;3.50;99.90
54264;DHT22;40178;53.042;6.406;2023-02-24T06:30:11;3.60;99.90
54264;DHT22;40178;53.042;6.406;2023-02-24T06:32:36;3.60;99.90
54264;DHT22;40178;53.042;6.406;2023-02-24T06:35:02;4.20;99.90
54264;DHT22;40178;53.042;6.406;2023-02-24T06:37:28;3.60;99.90
54264;DHT22;40178;53.042;6.406;2023-02-24T06:39:54;3.60;99.90
54264;DHT22;40178;53.042;6.406;2023-02-24T06:42:20;3.70;99.90
54264;DHT22;40178;53.042;6.406;2023-02-24T06:44:46;3.60;99.90
54264;DHT22;40178;53.042;6.406;2023-02-24T06:47:13;3.60;99.90
54264;DHT22;40178;53.042;6.406;2023-02-24T06:49:40;3.70;99.90
54264;DHT22;40178;53.042;6.406;2023-02-24T06:52:09;3.60;99.90
54264;DHT22;40178;53.042;6.406;2023-02-24T06:54:36;3.70;99.90
54264;DHT22;40178;53.042;6.406;2023-02-24T06:57:02;3.70;99.90
54264;DHT22;40178;53.042;6.406;2023-02-24T06:59:28;3.70;99.90
54264;DHT22;40178;53.042;6.406;2023-02-24T07:01:55;3.70;99.90
54264;DHT22;40178;53.042;6.406;2023-02-24T07:04:21;3.60;99.90
54264;DHT22;40178;53.042;6.406;2023-02-24T07:06:54;3.70;99.90
54264;DHT22;40178;53.042;6.406;2023-02-24T07:09:23;3.70;99.90
54264;DHT22;40178;53.042;6.406;2023-02-24T07:11:50;3.70;99.90
54264;DHT22;40178;53.042;6.406;2023-02-24T07:14:19;3.70;99.90
54264;DHT22;40178;53.042;6.406;2023-02-24T07:16:45;3.80;99.90
54264;DHT22;40178;53.042;6.406;2023-02-24T07:19:14;3.80;99.90
54264;DHT22;40178;53.042;6.406;2023-02-24T07:21:44;3.80;99.90
54264;DHT22;40178;53.042;6.406;2023-02-24T07:24:17;3.80;99.90
54264;DHT22;40178;53.042;6.406;2023-02-24T07:27:09;3.80;99.90
54264;DHT22;40178;53.042;6.406;2023-02-24T07:29:36;3.90;99.90
54264;DHT22;40178;53.042;6.406;2023-02-24T07:32:04;3.80;99.90
54264;DHT22;40178;53.042;6.406;2023-02-24T07:34:30;3.90;99.90
54264;DHT22;40178;53.042;6.406;2023-02-24T07:36:56;3.90;99.90
54264;DHT22;40178;53.042;6.406;2023-02-24T07:39:23;5.40;99.90
54264;DHT22;40178;53.042;6.406;2023-02-24T07:41:50;5.00;99.90
54264;DHT22;40178;53.042;6.406;2023-02-24T07:44:18;3.90;99.90
54264;DHT22;40178;53.042;6.406;2023-02-24T07:46:44;3.80;99.90
54264;DHT22;40178;53.042;6.406;2023-02-24T07:49:18;3.80;99.90
54264;DHT22;40178;53.042;6.406;2023-02-24T07:51:45;3.90;99.90
54264;DHT22;40178;53.042;6.406;2023-02-24T07:54:17;3.90;99.90
54264;DHT22;40178;53.042;6.406;2023-02-24T07:56:43;4.00;99.90
54264;DHT22;40178;53.042;6.406;2023-02-24T07:59:14;4.00;99.90
54264;DHT22;40178;53.042;6.406;2023-02-24T08:01:41;4.00;99.90
54264;DHT22;40178;53.042;6.406;2023-02-24T08:04:16;4.00;99.90
54264;DHT22;40178;53.042;6.406;2023-02-24T08:06:42;4.00;99.90
54264;DHT22;40178;53.042;6.406;2023-02-24T08:09:19;4.00;99.90
54264;DHT22;40178;53.042;6.406;2023-02-24T08:11:53;4.10;99.90
54264;DHT22;40178;53.042;6.406;2023-02-24T08:14:27;4.10;99.90
54264;DHT22;40178;53.042;6.406;2023-02-24T08:17:00;4.20;99.90
54264;DHT22;40178;53.042;6.406;2023-02-24T08:19:31;4.30;99.90
54264;DHT22;40178;53.042;6.406;2023-02-24T08:22:09;4.30;99.90
54264;DHT22;40178;53.042;6.406;2023-02-24T08:25:10;4.20;99.90
54264;DHT22;40178;53.042;6.406;2023-02-24T08:27:44;4.40;99.90
54264;DHT22;40178;53.042;6.406;2023-02-24T08:30:10;4.40;99.90
54264;DHT22;40178;53.042;6.406;2023-02-24T08:32:49;4.30;99.90
54264;DHT22;40178;53.042;6.406;2023-02-24T08:35:22;4.50;99.90
54264;DHT22;40178;53.042;6.406;2023-02-24T08:37:54;4.50;99.90
54264;DHT22;40178;53.042;6.406;2023-02-24T08:40:23;4.30;99.90
54264;DHT22;40178;53.042;6.406;2023-02-24T08:43:12;4.40;99.90
54264;DHT22;40178;53.042;6.406;2023-02-24T08:45:43;4.50;99.90
54264;DHT22;40178;53.042;6.406;2023-02-24T08:48:14;4.60;99.90
54264;DHT22;40178;53.042;6.406;2023-02-24T08:50:46;4.60;99.90
54264;DHT22;40178;53.042;6.406;2023-02-24T08:53:13;4.70;99.90
54264;DHT22;40178;53.042;6.406;2023-02-24T08:55:44;4.60;99.90
54264;DHT22;40178;53.042;6.406;2023-02-24T08:58:10;4.60;99.90
54264;DHT22;40178;53.042;6.406;2023-02-24T09:00:43;4.70;99.90
54264;DHT22;40178;53.042;6.406;2023-02-24T09:03:19;4.80;99.90
54264;DHT22;40178;53.042;6.406;2023-02-24T09:08:22;4.80;99.90
54264;DHT22;40178;53.042;6.406;2023-02-24T09:10:49;5.30;99.90
54264;DHT22;40178;53.042;6.406;2023-02-24T09:13:14;4.90;99.90
54264;DHT22;40178;53.042;6.406;2023-02-24T09:15:40;5.00;99.90
54264;DHT22;40178;53.042;6.406;2023-02-24T09:18:06;5.00;99.90
54264;DHT22;40178;53.042;6.406;2023-02-24T09:20:31;4.90;99.90
54264;DHT22;40178;53.042;6.406;2023-02-24T09:23:16;5.10;99.90
54264;DHT22;40178;53.042;6.406;2023-02-24T09:25:45;5.10;99.90
54264;DHT22;40178;53.042;6.406;2023-02-24T09:33:31;6.60;99.90
54264;DHT22;40178;53.042;6.406;2023-02-24T09:36:11;5.20;99.90
54264;DHT22;40178;53.042;6.406;2023-02-24T09:38:43;5.30;99.90
54264;DHT22;40178;53.042;6.406;2023-02-24T09:41:37;5.10;99.90
54264;DHT22;40178;53.042;6.406;2023-02-24T09:44:34;5.40;99.90
54264;DHT22;40178;53.042;6.406;2023-02-24T09:53:12;5.30;99.90
54264;DHT22;40178;53.042;6.406;2023-02-24T09:55:59;5.40;99.90
54264;DHT22;40178;53.042;6.406;2023-02-24T09:58:53;5.70;99.90
54264;DHT22;40178;53.042;6.406;2023-02-24T10:01:50;5.70;99.90
54264;DHT22;40178;53.042;6.406;2023-02-24T10:07:11;6.90;99.90
54264;DHT22;40178;53.042;6.406;2023-02-24T10:09:49;5.80;99.90
54264;DHT22;40178;53.042;6.406;2023-02-24T10:12:16;5.90;99.90
54264;DHT22;40178;53.042;6.406;2023-02-24T10:14:50;6.10;99.90
54264;DHT22;40178;53.042;6.406;2023-02-24T10:17:39;6.10;99.90
54264;DHT22;40178;53.042;6.406;2023-02-24T10:20:28;6.30;99.90
54264;DHT22;40178;53.042;6.406;2023-02-24T10:26:09;6.70;99.90
54264;DHT22;40178;53.042;6.406;2023-02-24T10:31:33;6.90;99.90
54264;DHT22;40178;53.042;6.406;2023-02-24T10:34:09;6.80;99.90
54264;DHT22;40178;53.042;6.406;2023-02-24T10:36:36;6.90;99.90
54264;DHT22;40178;53.042;6.406;2023-02-24T10:39:28;7.80;99.90
54264;DHT22;40178;53.042;6.406;2023-02-24T10:42:02;7.00;99.90
54264;DHT22;40178;53.042;6.406;2023-02-24T10:44:48;7.00;99.90
54264;DHT22;40178;53.042;6.406;2023-02-24T10:47:22;7.00;99.90
54264;DHT22;40178;53.042;6.406;2023-02-24T10:49:57;7.00;99.90
54264;DHT22;40178;53.042;6.406;2023-02-24T10:52:35;7.00;99.90
54264;DHT22;40178;53.042;6.406;2023-02-24T10:55:13;8.10;99.90
54264;DHT22;40178;53.042;6.406;2023-02-24T10:57:54;7.60;99.90
54264;DHT22;40178;53.042;6.406;2023-02-24T11:00:43;6.90;99.90
54264;DHT22;40178;53.042;6.406;2023-02-24T11:03:28;7.90;99.90
54264;DHT22;40178;53.042;6.406;2023-02-24T11:06:04;7.70;99.90
54264;DHT22;40178;53.042;6.406;2023-02-24T11:08:34;7.00;99.90
54264;DHT22;40178;53.042;6.406;2023-02-24T11:11:21;7.00;99.90
54264;DHT22;40178;53.042;6.406;2023-02-24T11:13:55;7.00;99.90
54264;DHT22;40178;53.042;6.406;2023-02-24T11:16:52;7.00;99.90
54264;DHT22;40178;53.042;6.406;2023-02-24T11:19:49;7.00;99.90
54264;DHT22;40178;53.042;6.406;2023-02-24T11:22:26;7.20;99.90
54264;DHT22;40178;53.042;6.406;2023-02-24T11:24:54;7.10;99.90
54264;DHT22;40178;53.042;6.406;2023-02-24T11:27:21;7.00;99.90
54264;DHT22;40178;53.042;6.406;2023-02-24T11:30:02;6.90;99.90
54264;DHT22;40178;53.042;6.406;2023-02-24T11:35:26;6.90;99.90
54264;DHT22;40178;53.042;6.406;2023-02-24T11:41:25;7.00;99.90
54264;DHT22;40178;53.042;6.406;2023-02-24T11:44:16;7.00;99.90
54264;DHT22;40178;53.042;6.406;2023-02-24T11:47:00;7.00;99.90
54264;DHT22;40178;53.042;6.406;2023-02-24T11:49:47;7.10;99.90
54264;DHT22;40178;53.042;6.406;2023-02-24T11:52:24;7.20;99.90
54264;DHT22;40178;53.042;6.406;2023-02-24T11:54:55;8.40;99.90
54264;DHT22;40178;53.042;6.406;2023-02-24T11:57:42;7.50;99.90
54264;DHT22;40178;53.042;6.406;2023-02-24T12:00:14;7.40;99.90
54264;DHT22;40178;53.042;6.406;2023-02-24T12:03:04;7.40;99.90
54264;DHT22;40178;53.042;6.406;2023-02-24T12:05:35;7.40;99.90
54264;DHT22;40178;53.042;6.406;2023-02-24T12:11:12;7.40;99.90
54264;DHT22;40178;53.042;6.406;2023-02-24T12:13:49;7.30;99.90
54264;DHT22;40178;53.042;6.406;2023-02-24T12:16:21;7.30;99.90
54264;DHT22;40178;53.042;6.406;2023-02-24T12:18:57;7.20;99.90
54264;DHT22;40178;53.042;6.406;2023-02-24T12:21:42;6.90;99.90
54264;DHT22;40178;53.042;6.406;2023-02-24T12:24:13;6.60;99.90
54264;DHT22;40178;53.042;6.406;2023-02-24T12:27:14;7.20;99.90
54264;DHT22;40178;53.042;6.406;2023-02-24T12:30:06;6.30;99.90
54264;DHT22;40178;53.042;6.406;2023-02-24T12:33:04;6.30;99.90
54264;DHT22;40178;53.042;6.406;2023-02-24T12:35:46;6.30;99.90
54264;DHT22;40178;53.042;6.406;2023-02-24T12:41:29;6.60;99.90
54264;DHT22;40178;53.042;6.406;2023-02-24T12:47:03;6.90;99.90
54264;DHT22;40178;53.042;6.406;2023-02-24T13:00:59;7.60;99.90
54264;DHT22;40178;53.042;6.406;2023-02-24T13:03:52;7.50;99.90
54264;DHT22;40178;53.042;6.406;2023-02-24T13:09:21;7.50;99.90
54264;DHT22;40178;53.042;6.406;2023-02-24T13:12:15;7.50;99.90
54264;DHT22;40178;53.042;6.406;2023-02-24T13:14:43;7.40;99.90
54264;DHT22;40178;53.042;6.406;2023-02-24T13:19:35;8.10;99.90
54264;DHT22;40178;53.042;6.406;2023-02-24T13:24:39;7.10;99.90
54264;DHT22;40178;53.042;6.406;2023-02-24T13:27:05;6.90;99.90
54264;DHT22;40178;53.042;6.406;2023-02-24T13:29:45;6.80;99.90
54264;DHT22;40178;53.042;6.406;2023-02-24T13:32:42;6.80;99.90
54264;DHT22;40178;53.042;6.406;2023-02-24T13:37:45;6.90;99.90
54264;DHT22;40178;53.042;6.406;2023-02-24T13:40:22;7.00;99.90
54264;DHT22;40178;53.042;6.406;2023-02-24T13:45:20;7.10;99.90
54264;DHT22;40178;53.042;6.406;2023-02-24T13:53:37;7.00;99.90
54264;DHT22;40178;53.042;6.406;2023-02-24T13:59:08;7.00;99.90
54264;DHT22;40178;53.042;6.406;2023-02-24T14:01:59;7.00;99.90
54264;DHT22;40178;53.042;6.406;2023-02-24T14:04:34;6.90;99.90
54264;DHT22;40178;53.042;6.406;2023-02-24T14:07:08;7.70;99.90
54264;DHT22;40178;53.042;6.406;2023-02-24T14:09:42;7.60;99.90
54264;DHT22;40178;53.042;6.406;2023-02-24T14:12:22;6.70;99.90
54264;DHT22;40178;53.042;6.406;2023-02-24T14:14:49;6.70;99.90
54264;DHT22;40178;53.042;6.406;2023-02-24T14:17:36;6.60;99.90
54264;DHT22;40178;53.042;6.406;2023-02-24T14:22:42;6.70;99.90
54264;DHT22;40178;53.042;6.406;2023-02-24T14:25:10;6.60;99.90
54264;DHT22;40178;53.042;6.406;2023-02-24T14:27:36;6.60;99.90
54264;DHT22;40178;53.042;6.406;2023-02-24T14:30:04;6.40;99.90
54264;DHT22;40178;53.042;6.406;2023-02-24T14:32:31;6.40;99.90
54264;DHT22;40178;53.042;6.406;2023-02-24T14:34:58;6.30;99.90
54264;DHT22;40178;53.042;6.406;2023-02-24T14:37:26;6.10;99.90
54264;DHT22;40178;53.042;6.406;2023-02-24T14:39:55;6.00;99.90
54264;DHT22;40178;53.042;6.406;2023-02-24T14:42:22;7.00;99.90
54264;DHT22;40178;53.042;6.406;2023-02-24T14:44:50;5.90;99.90
54264;DHT22;40178;53.042;6.406;2023-02-24T14:47:18;5.90;99.90
54264;DHT22;40178;53.042;6.406;2023-02-24T14:49:59;6.80;99.90
54264;DHT22;40178;53.042;6.406;2023-02-24T14:52:41;5.80;99.90
54264;DHT22;40178;53.042;6.406;2023-02-24T14:55:20;5.90;99.90
54264;DHT22;40178;53.042;6.406;2023-02-24T14:58:01;5.90;99.90
54264;DHT22;40178;53.042;6.406;2023-02-24T15:00:41;6.00;99.90
54264;DHT22;40178;53.042;6.406;2023-02-24T15:03:28;6.00;99.90
54264;DHT22;40178;53.042;6.406;2023-02-24T15:05:57;6.00;99.90
54264;DHT22;40178;53.042;6.406;2023-02-24T15:08:38;6.00;99.90
54264;DHT22;40178;53.042;6.406;2023-02-24T15:11:17;5.90;99.90
54264;DHT22;40178;53.042;6.406;2023-02-24T15:13:53;5.80;99.90
54264;DHT22;40178;53.042;6.406;2023-02-24T15:16:37;5.80;99.90
54264;DHT22;40178;53.042;6.406;2023-02-24T15:19:16;5.80;99.90
54264;DHT22;40178;53.042;6.406;2023-02-24T15:21:45;5.60;99.90
54264;DHT22;40178;53.042;6.406;2023-02-24T15:24:19;5.80;99.90
54264;DHT22;40178;53.042;6.406;2023-02-24T15:27:18;5.80;99.90
54264;DHT22;40178;53.042;6.406;2023-02-24T15:29:44;6.10;99.90
54264;DHT22;40178;53.042;6.406;2023-02-24T15:32:26;6.20;99.90
54264;DHT22;40178;53.042;6.406;2023-02-24T15:34:52;6.10;99.90
54264;DHT22;40178;53.042;6.406;2023-02-24T15:37:32;6.00;99.90
54264;DHT22;40178;53.042;6.406;2023-02-24T15:40:21;5.70;99.90
54264;DHT22;40178;53.042;6.406;2023-02-24T15:45:28;5.30;99.90
54264;DHT22;40178;53.042;6.406;2023-02-24T15:47:57;5.10;99.90
54264;DHT22;40178;53.042;6.406;2023-02-24T15:50:24;5.20;99.90
54264;DHT22;40178;53.042;6.406;2023-02-24T15:52:50;5.00;99.90
54264;DHT22;40178;53.042;6.406;2023-02-24T15:55:18;6.40;99.90
54264;DHT22;40178;53.042;6.406;2023-02-24T15:57:43;5.00;99.90
54264;DHT22;40178;53.042;6.406;2023-02-24T16:00:13;6.50;99.90
54264;DHT22;40178;53.042;6.406;2023-02-24T16:02:40;5.10;99.90
54264;DHT22;40178;53.042;6.406;2023-02-24T16:05:08;5.20;99.90
54264;DHT22;40178;53.042;6.406;2023-02-24T16:07:35;5.20;99.90
54264;DHT22;40178;53.042;6.406;2023-02-24T16:10:03;5.30;99.90
54264;DHT22;40178;53.042;6.406;2023-02-24T16:12:32;5.30;99.90
54264;DHT22;40178;53.042;6.406;2023-02-24T16:15:02;5.30;99.90
54264;DHT22;40178;53.042;6.406;2023-02-24T16:17:34;5.40;99.90
54264;DHT22;40178;53.042;6.406;2023-02-24T16:20:03;5.40;99.90
54264;DHT22;40178;53.042;6.406;2023-02-24T16:22:33;5.40;99.90
54264;DHT22;40178;53.042;6.406;2023-02-24T16:24:59;5.40;99.90
54264;DHT22;40178;53.042;6.406;2023-02-24T16:27:25;5.40;99.90
54264;DHT22;40178;53.042;6.406;2023-02-24T16:29:54;5.40;99.90
54264;DHT22;40178;53.042;6.406;2023-02-24T16:32:21;5.40;99.90
54264;DHT22;40178;53.042;6.406;2023-02-24T16:34:48;5.40;99.90
54264;DHT22;40178;53.042;6.406;2023-02-24T16:37:21;5.40;99.90
54264;DHT22;40178;53.042;6.406;2023-02-24T16:39:47;5.30;99.90
54264;DHT22;40178;53.042;6.406;2023-02-24T16:42:15;5.30;99.90
54264;DHT22;40178;53.042;6.406;2023-02-24T16:44:41;5.20;99.90
54264;DHT22;40178;53.042;6.406;2023-02-24T16:47:07;5.10;99.90
54264;DHT22;40178;53.042;6.406;2023-02-24T16:49:37;5.10;99.90
54264;DHT22;40178;53.042;6.406;2023-02-24T16:52:02;5.20;99.90
54264;DHT22;40178;53.042;6.406;2023-02-24T16:54:28;5.10;99.90
54264;DHT22;40178;53.042;6.406;2023-02-24T16:56:55;5.10;99.90
54264;DHT22;40178;53.042;6.406;2023-02-24T16:59:20;5.00;99.90
54264;DHT22;40178;53.042;6.406;2023-02-24T17:01:46;5.00;99.90
54264;DHT22;40178;53.042;6.406;2023-02-24T17:04:12;4.90;99.90
54264;DHT22;40178;53.042;6.406;2023-02-24T17:06:39;4.90;99.90
54264;DHT22;40178;53.042;6.406;2023-02-24T17:09:05;4.90;99.90
54264;DHT22;40178;53.042;6.406;2023-02-24T17:11:30;4.90;99.90
54264;DHT22;40178;53.042;6.406;2023-02-24T17:13:56;4.90;99.90
54264;DHT22;40178;53.042;6.406;2023-02-24T17:16:22;4.90;99.90
54264;DHT22;40178;53.042;6.406;2023-02-24T17:18:48;4.80;99.90
54264;DHT22;40178;53.042;6.406;2023-02-24T17:21:14;4.80;99.90
54264;DHT22;40178;53.042;6.406;2023-02-24T17:23:40;4.80;99.90
54264;DHT22;40178;53.042;6.406;2023-02-24T17:26:12;4.80;99.90
54264;DHT22;40178;53.042;6.406;2023-02-24T17:28:38;4.80;99.90
54264;DHT22;40178;53.042;6.406;2023-02-24T17:31:04;4.80;99.90
54264;DHT22;40178;53.042;6.406;2023-02-24T17:33:32;4.70;99.90
54264;DHT22;40178;53.042;6.406;2023-02-24T17:35:58;4.70;99.90
54264;DHT22;40178;53.042;6.406;2023-02-24T17:38:24;4.70;99.90
54264;DHT22;40178;53.042;6.406;2023-02-24T17:40:51;4.70;99.90
54264;DHT22;40178;53.042;6.406;2023-02-24T17:43:17;4.70;99.90
54264;DHT22;40178;53.042;6.406;2023-02-24T17:45:44;4.70;99.90
54264;DHT22;40178;53.042;6.406;2023-02-24T17:48:11;4.70;99.90
54264;DHT22;40178;53.042;6.406;2023-02-24T17:50:40;4.70;99.90
54264;DHT22;40178;53.042;6.406;2023-02-24T17:53:06;4.70;99.90
54264;DHT22;40178;53.042;6.406;2023-02-24T17:55:32;4.70;99.90
54264;DHT22;40178;53.042;6.406;2023-02-24T17:58:01;4.70;99.90
54264;DHT22;40178;53.042;6.406;2023-02-24T18:00:27;4.80;99.90
54264;DHT22;40178;53.042;6.406;2023-02-24T18:02:53;4.80;99.90
54264;DHT22;40178;53.042;6.406;2023-02-24T18:05:18;4.80;99.90
54264;DHT22;40178;53.042;6.406;2023-02-24T18:07:44;4.80;99.90
54264;DHT22;40178;53.042;6.406;2023-02-24T18:10:10;4.80;99.90
54264;DHT22;40178;53.042;6.406;2023-02-24T18:12:36;4.80;99.90
54264;DHT22;40178;53.042;6.406;2023-02-24T18:15:04;4.80;99.90
54264;DHT22;40178;53.042;6.406;2023-02-24T18:17:30;4.80;99.90
54264;DHT22;40178;53.042;6.406;2023-02-24T18:19:56;4.70;99.90